sensor_id;sensor_type;location;lat;lon;timestamp;temperature;humidity
70734;DHT22;58320;48.804;9.252;2024-01-16T00:01:43;-0.30;70.90
70734;DHT22;58320;48.804;9.252;2024-01-16T00:04:09;-0.30;71.30
70734;DHT22;58320;48.804;9.252;2024-01-16T00:06:42;-0.30;71.30
70734;DHT22;58320;48.804;9.252;2024-01-16T00:09:08;-0.40;71.20
70734;DHT22;58320;48.804;9.252;2024-01-16T00:11:41;-0.30;70.90
70734;DHT22;58320;48.804;9.252;2024-01-16T00:14:07;-0.30;70.60
70734;DHT22;58320;48.804;9.252;2024-01-16T00:16:33;-0.30;70.80
70734;DHT22;58320;48.804;9.252;2024-01-16T00:18:58;-0.30;71.10
70734;DHT22;58320;48.804;9.252;2024-01-16T00:21:24;-0.30;70.70
70734;DHT22;58320;48.804;9.252;2024-01-16T00:23:50;-0.30;70.50
70734;DHT22;58320;48.804;9.252;2024-01-16T00:26:22;-0.30;70.60
70734;DHT22;58320;48.804;9.252;2024-01-16T00:28:48;-0.30;70.30
70734;DHT22;58320;48.804;9.252;2024-01-16T00:31:14;-0.30;70.70
70734;DHT22;58320;48.804;9.252;2024-01-16T00:33:40;-0.30;70.60
70734;DHT22;58320;48.804;9.252;2024-01-16T00:36:06;-0.30;70.70
70734;DHT22;58320;48.804;9.252;2024-01-16T00:38:34;-0.40;71.10
70734;DHT22;58320;48.804;9.252;2024-01-16T00:41:00;-0.40;71.00
70734;DHT22;58320;48.804;9.252;2024-01-16T00:43:26;-0.40;71.00
70734;DHT22;58320;48.804;9.252;2024-01-16T00:45:52;-0.40;71.10
70734;DHT22;58320;48.804;9.252;2024-01-16T00:48:17;-0.40;71.20
70734;DHT22;58320;48.804;9.252;2024-01-16T00:50:44;-0.40;71.20
70734;DHT22;58320;48.804;9.252;2024-01-16T00:53:11;-0.40;71.20
70734;DHT22;58320;48.804;9.252;2024-01-16T00:55:37;-0.40;71.50
70734;DHT22;58320;48.804;9.252;2024-01-16T00:58:03;-0.50;71.60
70734;DHT22;58320;48.804;9.252;2024-01-16T01:00:29;-0.50;72.00
70734;DHT22;58320;48.804;9.252;2024-01-16T01:02:56;-0.50;71.90
70734;DHT22;58320;48.804;9.252;2024-01-16T01:05:24;-0.50;72.10
70734;DHT22;58320;48.804;9.252;2024-01-16T01:07:54;-0.60;72.90
70734;DHT22;58320;48.804;9.252;2024-01-16T01:10:20;-0.60;72.50
70734;DHT22;58320;48.804;9.252;2024-01-16T01:12:46;-0.60;72.60
70734;DHT22;58320;48.804;9.252;2024-01-16T01:15:12;-0.50;72.10
70734;DHT22;58320;48.804;9.252;2024-01-16T01:17:39;-0.50;72.10
70734;DHT22;58320;48.804;9.252;2024-01-16T01:20:06;-0.50;71.90
70734;DHT22;58320;48.804;9.252;2024-01-16T01:22:33;-0.50;72.10
70734;DHT22;58320;48.804;9.252;2024-01-16T01:24:58;-0.40;71.60
70734;DHT22;58320;48.804;9.252;2024-01-16T01:27:24;-0.40;71.60
70734;DHT22;58320;48.804;9.252;2024-01-16T01:29:50;-0.40;71.50
70734;DHT22;58320;48.804;9.252;2024-01-16T01:32:16;-0.40;71.60
70734;DHT22;58320;48.804;9.252;2024-01-16T01:34:42;-0.40;71.00
70734;DHT22;58320;48.804;9.252;2024-01-16T01:37:08;-0.30;70.90
70734;DHT22;58320;48.804;9.252;2024-01-16T01:39:34;-0.40;71.10
70734;DHT22;58320;48.804;9.252;2024-01-16T01:41:59;-0.30;71.10
70734;DHT22;58320;48.804;9.252;2024-01-16T01:44:25;-0.40;70.90
70734;DHT22;58320;48.804;9.252;2024-01-16T01:46:51;-0.40;71.10
70734;DHT22;58320;48.804;9.252;2024-01-16T01:49:20;-0.40;71.00
70734;DHT22;58320;48.804;9.252;2024-01-16T01:51:46;-0.40;71.00
70734;DHT22;58320;48.804;9.252;2024-01-16T01:54:13;-0.40;71.00
70734;DHT22;58320;48.804;9.252;2024-01-16T01:56:40;-0.40;71.00
70734;DHT22;58320;48.804;9.252;2024-01-16T01:59:08;-0.40;71.00
70734;DHT22;58320;48.804;9.252;2024-01-16T02:01:34;-0.40;71.00
70734;DHT22;58320;48.804;9.252;2024-01-16T02:04:00;-0.40;71.40
70734;DHT22;58320;48.804;9.252;2024-01-16T02:06:27;-0.40;71.40
70734;DHT22;58320;48.804;9.252;2024-01-16T02:08:53;-0.40;71.50
70734;DHT22;58320;48.804;9.252;2024-01-16T02:11:19;-0.50;71.50
70734;DHT22;58320;48.804;9.252;2024-01-16T02:13:45;-0.50;71.50
70734;DHT22;58320;48.804;9.252;2024-01-16T02:16:21;-0.50;71.90
70734;DHT22;58320;48.804;9.252;2024-01-16T02:18:48;-0.50;72.10
70734;DHT22;58320;48.804;9.252;2024-01-16T02:21:21;-0.60;72.10
70734;DHT22;58320;48.804;9.252;2024-01-16T02:23:47;-0.60;72.00
70734;DHT22;58320;48.804;9.252;2024-01-16T02:26:17;-0.70;72.60
70734;DHT22;58320;48.804;9.252;2024-01-16T02:28:44;-0.80;72.80
70734;DHT22;58320;48.804;9.252;2024-01-16T02:31:09;-0.80;72.80
70734;DHT22;58320;48.804;9.252;2024-01-16T02:33:35;-0.90;73.20
70734;DHT22;58320;48.804;9.252;2024-01-16T02:36:01;-0.90;73.30
70734;DHT22;58320;48.804;9.252;2024-01-16T02:38:26;-1.00;73.60
70734;DHT22;58320;48.804;9.252;2024-01-16T02:40:52;-1.00;73.80
70734;DHT22;58320;48.804;9.252;2024-01-16T02:43:18;-1.10;74.30
70734;DHT22;58320;48.804;9.252;2024-01-16T02:45:43;-1.20;74.60
70734;DHT22;58320;48.804;9.252;2024-01-16T02:48:09;-1.20;74.80
70734;DHT22;58320;48.804;9.252;2024-01-16T02:50:35;-1.20;74.60
70734;DHT22;58320;48.804;9.252;2024-01-16T02:53:01;-1.30;74.70
70734;DHT22;58320;48.804;9.252;2024-01-16T02:55:26;-1.30;74.90
70734;DHT22;58320;48.804;9.252;2024-01-16T02:57:52;-1.30;75.00
70734;DHT22;58320;48.804;9.252;2024-01-16T03:00:18;-1.30;75.40
70734;DHT22;58320;48.804;9.252;2024-01-16T03:02:44;-1.30;75.00
70734;DHT22;58320;48.804;9.252;2024-01-16T03:05:10;-1.40;75.40
70734;DHT22;58320;48.804;9.252;2024-01-16T03:07:36;-1.40;75.60
70734;DHT22;58320;48.804;9.252;2024-01-16T03:10:02;-1.40;75.50
70734;DHT22;58320;48.804;9.252;2024-01-16T03:12:28;-1.40;75.40
70734;DHT22;58320;48.804;9.252;2024-01-16T03:14:54;-1.30;75.40
70734;DHT22;58320;48.804;9.252;2024-01-16T03:17:20;-1.30;75.60
70734;DHT22;58320;48.804;9.252;2024-01-16T03:19:45;-1.30;75.40
70734;DHT22;58320;48.804;9.252;2024-01-16T03:22:11;-1.30;75.30
70734;DHT22;58320;48.804;9.252;2024-01-16T03:24:38;-1.40;75.50
70734;DHT22;58320;48.804;9.252;2024-01-16T03:27:04;-1.40;75.90
70734;DHT22;58320;48.804;9.252;2024-01-16T03:29:29;-1.50;75.70
70734;DHT22;58320;48.804;9.252;2024-01-16T03:31:55;-1.50;75.70
70734;DHT22;58320;48.804;9.252;2024-01-16T03:34:21;-1.50;75.70
70734;DHT22;58320;48.804;9.252;2024-01-16T03:36:48;-1.50;75.70
70734;DHT22;58320;48.804;9.252;2024-01-16T03:39:14;-1.50;75.70
70734;DHT22;58320;48.804;9.252;2024-01-16T03:41:40;-1.60;75.80
70734;DHT22;58320;48.804;9.252;2024-01-16T03:44:05;-1.70;76.00
70734;DHT22;58320;48.804;9.252;2024-01-16T03:46:31;-1.70;76.30
70734;DHT22;58320;48.804;9.252;2024-01-16T03:48:57;-1.80;76.50
70734;DHT22;58320;48.804;9.252;2024-01-16T03:51:22;-1.80;76.90
70734;DHT22;58320;48.804;9.252;2024-01-16T03:53:48;-1.80;76.90
70734;DHT22;58320;48.804;9.252;2024-01-16T03:56:16;-1.80;76.80
70734;DHT22;58320;48.804;9.252;2024-01-16T03:58:42;-1.80;76.60
